Time;durP1;ratioP1;P1;durP2;ratioP2;P2;SDS_P1;SDS_P2;PMS_P1;PMS_P2;Temp;Humidity;BMP_temperature;BMP_pressure;BME280_temperature;BME280_humidity;BME280_pressure;Samples;Min_cycle;Max_cycle;Signal;HPM_P1;HPM_P2
2022/10/22 00:01:32;;;;;;;16.33;4.13;;;12.00;98.00;;;;;;4859264;29;20308;-76
2022/10/22 00:03:57;;;;;;;13.82;3.50;;;11.90;98.10;;;;;;4842495;29;20041;-75
2022/10/22 00:06:23;;;;;;;;;;;11.90;98.00;;;;;;4842086;29;20423;-75
2022/10/22 00:08:49;;;;;;;12.27;3.47;;;11.90;98.10;;;;;;4858774;29;19954;-76
2022/10/22 00:11:15;;;;;;;;;;;12.00;98.20;;;;;;4842883;29;20033;-76
2022/10/22 00:13:41;;;;;;;7.60;4.10;;;11.90;98.30;;;;;;4858738;29;20378;-75
2022/10/22 00:16:07;;;;;;;21.70;5.22;;;11.80;98.40;;;;;;4858837;29;20040;-75
2022/10/22 00:18:33;;;;;;;9.65;4.20;;;12.00;98.50;;;;;;4858151;29;20061;-75
2022/10/22 00:20:59;;;;;;;;;;;11.90;98.40;;;;;;4842767;29;20065;-75
2022/10/22 00:23:24;;;;;;;11.10;4.28;;;11.80;98.50;;;;;;4841446;29;19960;-75
2022/10/22 00:25:51;;;;;;;;;;;11.80;98.50;;;;;;4842316;29;20049;-75
2022/10/22 00:28:17;;;;;;;15.35;6.15;;;11.80;98.70;;;;;;4842237;29;19912;-75
2022/10/22 00:30:42;;;;;;;;;;;11.80;98.70;;;;;;4842064;29;20495;-75
2022/10/22 00:33:08;;;;;;;15.02;4.85;;;11.80;98.90;;;;;;4858321;29;19912;-75
2022/10/22 00:35:33;;;;;;;;;;;11.80;98.90;;;;;;4857780;29;20044;-75
2022/10/22 00:37:59;;;;;;;9.55;4.22;;;11.70;98.90;;;;;;4858642;29;19923;-75
2022/10/22 00:40:24;;;;;;;;;;;11.70;99.00;;;;;;4842025;29;20030;-76
2022/10/22 00:42:50;;;;;;;16.55;4.47;;;11.60;99.30;;;;;;4841636;29;20282;-76
2022/10/22 00:45:22;;;;;;;;;;;11.60;99.30;;;;;;4859200;29;20044;-75
2022/10/22 00:48:09;;;;;;;17.10;5.57;;;11.60;99.30;;;;;;4842103;29;20282;-76
2022/10/22 00:50:51;;;;;;;11.73;4.47;;;11.60;99.30;;;;;;4851987;29;20038;-76
2022/10/22 00:53:33;;;;;;;9.63;5.15;;;11.50;99.40;;;;;;4858534;29;20069;-75
2022/10/22 00:55:59;;;;;;;11.60;4.70;;;11.50;99.50;;;;;;4842799;29;20491;-77
2022/10/22 00:58:26;;;;;;;;;;;11.40;99.60;;;;;;4859131;29;20081;-75
2022/10/22 01:00:51;;;;;;;8.43;4.85;;;11.40;99.70;;;;;;4858993;29;20282;-75
2022/10/22 01:03:17;;;;;;;;;;;11.40;99.60;;;;;;4861782;29;20041;-75
2022/10/22 01:05:52;;;;;;;12.00;4.70;;;11.40;99.80;;;;;;4845348;29;20442;-75
2022/10/22 01:08:55;;;;;;;14.48;5.20;;;11.40;99.90;;;;;;4862270;29;20040;-75
2022/10/22 01:11:33;;;;;;;14.13;5.38;;;11.40;99.90;;;;;;4844999;29;20033;-75
2022/10/22 01:14:30;;;;;;;9.18;4.18;;;11.40;99.90;;;;;;4845080;29;20483;-75
2022/10/22 01:17:07;;;;;;;12.38;5.20;;;11.30;99.90;;;;;;4862242;29;20039;-75
2022/10/22 01:20:04;;;;;;;22.35;6.63;;;11.30;99.90;;;;;;4862230;29;20038;-76
2022/10/22 01:22:44;;;;;;;16.73;5.03;;;11.20;99.90;;;;;;4845306;29;20148;-74
2022/10/22 01:25:42;;;;;;;11.38;5.18;;;11.20;99.90;;;;;;4862187;29;20097;-75
2022/10/22 01:28:37;;;;;;;11.55;4.80;;;11.20;99.90;;;;;;4845523;29;20085;-76
2022/10/22 01:31:04;;;;;;;10.55;4.45;;;11.20;99.90;;;;;;4845482;29;20049;-76
2022/10/22 01:33:31;;;;;;;12.70;4.70;;;11.20;99.90;;;;;;4861706;29;20495;-76
2022/10/22 01:35:58;;;;;;;10.32;5.05;;;11.20;99.90;;;;;;4861809;29;20033;-75
2022/10/22 01:38:25;;;;;;;14.25;4.63;;;11.30;99.90;;;;;;4862015;29;20105;-75
2022/10/22 01:40:52;;;;;;;13.57;4.95;;;11.30;99.90;;;;;;4861765;29;20116;-75
2022/10/22 01:43:17;;;;;;;9.13;4.00;;;11.20;99.90;;;;;;4845062;29;20029;-75
2022/10/22 01:45:47;;;;;;;;;;;11.20;99.90;;;;;;4861407;29;20097;-76
2022/10/22 01:48:32;;;;;;;10.02;4.63;;;11.30;99.90;;;;;;4862730;29;19951;-76
2022/10/22 01:51:12;;;;;;;12.50;5.32;;;11.20;99.90;;;;;;4861044;29;20076;-75
2022/10/22 01:53:43;;;;;;;12.15;4.90;;;11.30;99.90;;;;;;4843971;29;20057;-75
2022/10/22 01:56:39;;;;;;;13.88;4.40;;;11.20;99.90;;;;;;4860947;29;20112;-75
2022/10/22 01:59:05;;;;;;;13.75;5.22;;;11.30;99.90;;;;;;4860682;29;20108;-75
2022/10/22 02:01:31;;;;;;;;;;;11.30;99.90;;;;;;4844546;29;20681;-75
2022/10/22 02:03:57;;;;;;;10.38;5.55;;;11.20;99.90;;;;;;4844023;29;19916;-75
2022/10/22 02:06:23;;;;;;;;;;;11.20;99.90;;;;;;4860879;29;20076;-75
2022/10/22 02:08:50;;;;;;;7.72;4.18;;;11.20;99.90;;;;;;4860645;29;20663;-75
2022/10/22 02:11:16;;;;;;;11.05;4.28;;;11.10;99.90;;;;;;4843935;29;20026;-75
2022/10/22 02:13:43;;;;;;;;;;;11.10;99.90;;;;;;4843048;29;20086;-75
2022/10/22 02:16:12;;;;;;;17.33;4.75;;;11.20;99.90;;;;;;4844109;29;19999;-75
2022/10/22 02:18:41;;;;;;;14.02;4.70;;;11.10;99.90;;;;;;4860771;29;20041;-76
2022/10/22 02:21:07;;;;;;;17.80;5.45;;;11.10;99.90;;;;;;4859997;29;20411;-75
2022/10/22 02:23:33;;;;;;;11.48;4.57;;;11.10;99.90;;;;;;4844099;29;20037;-75
2022/10/22 02:26:15;;;;;;;;;;;11.10;99.90;;;;;;4860748;29;20041;-76
2022/10/22 02:28:58;;;;;;;11.85;5.00;;;11.00;99.90;;;;;;4843779;29;19919;-76
2022/10/22 02:31:29;;;;;;;10.20;5.10;;;11.00;99.90;;;;;;4860655;29;20037;-75
2022/10/22 02:33:59;;;;;;;12.95;4.30;;;11.00;99.90;;;;;;4843977;29;20443;-76
2022/10/22 02:36:25;;;;;;;10.18;4.30;;;10.90;99.90;;;;;;4860071;29;20120;-76
2022/10/22 02:38:51;;;;;;;;;;;10.90;99.90;;;;;;4844164;29;20033;-75
2022/10/22 02:41:18;;;;;;;8.15;3.92;;;10.90;99.90;;;;;;4859880;29;19912;-75
2022/10/22 02:43:50;;;;;;;9.45;4.05;;;10.90;99.90;;;;;;4843831;29;20037;-76
2022/10/22 02:46:15;;;;;;;10.90;5.05;;;10.80;99.90;;;;;;4859980;29;20033;-75
2022/10/22 02:48:41;;;;;;;;;;;10.80;99.90;;;;;;4860032;29;20037;-75
2022/10/22 02:51:06;;;;;;;12.77;4.40;;;10.80;99.90;;;;;;4860261;29;20433;-75
2022/10/22 02:53:32;;;;;;;;;;;10.70;99.90;;;;;;4843936;29;20113;-75
2022/10/22 02:55:58;;;;;;;7.68;4.10;;;10.80;99.90;;;;;;4859893;29;19996;-76
2022/10/22 02:58:23;;;;;;;;;;;10.80;99.90;;;;;;4843533;29;20037;-75
2022/10/22 03:00:49;;;;;;;11.50;4.57;;;10.80;99.90;;;;;;4843530;29;19919;-75
2022/10/22 03:03:15;;;;;;;;;;;10.70;99.90;;;;;;4843383;29;20037;-76
2022/10/22 03:05:40;;;;;;;9.05;3.85;;;10.80;99.90;;;;;;4843040;29;20023;-75
2022/10/22 03:08:06;;;;;;;;;;;10.80;99.90;;;;;;4860719;29;20033;-76
2022/10/22 03:10:31;;;;;;;8.23;4.13;;;10.80;99.90;;;;;;4859844;29;19912;-75
2022/10/22 03:12:57;;;;;;;;;;;10.80;99.90;;;;;;4860816;29;20040;-76
2022/10/22 03:15:23;;;;;;;10.00;4.13;;;10.70;99.90;;;;;;4859257;29;20687;-76
2022/10/22 03:17:48;;;;;;;7.88;4.50;;;10.80;99.90;;;;;;4842871;29;20053;-75
2022/10/22 03:20:14;;;;;;;;;;;10.70;99.90;;;;;;4843628;29;20523;-75
2022/10/22 03:22:41;;;;;;;9.52;6.00;;;10.70;99.90;;;;;;4860006;29;19999;-75
2022/10/22 03:25:13;;;;;;;9.48;5.93;;;10.70;99.90;;;;;;4859749;29;20045;-75
2022/10/22 03:27:40;;;;;;;15.32;6.35;;;10.70;99.90;;;;;;4843538;29;20168;-75
2022/10/22 03:30:06;;;;;;;14.55;6.13;;;10.60;99.90;;;;;;4843392;29;20542;-76
2022/10/22 03:32:32;;;;;;;10.80;6.68;;;10.60;99.90;;;;;;4859430;29;20026;-76
2022/10/22 03:34:57;;;;;;;;;;;10.50;99.90;;;;;;4859198;29;20419;-76
2022/10/22 03:37:25;;;;;;;13.57;5.55;;;10.60;99.90;;;;;;4859963;29;20350;-76
2022/10/22 03:39:52;;;;;;;9.25;5.10;;;10.50;99.90;;;;;;4843074;29;20037;-75
2022/10/22 03:42:18;;;;;;;11.23;6.28;;;10.50;99.90;;;;;;4843261;29;20038;-76
2022/10/22 03:44:44;;;;;;;;;;;10.40;99.90;;;;;;4858638;29;20038;-74
2022/10/22 03:47:10;;;;;;;10.57;5.78;;;10.40;99.90;;;;;;4842902;29;19927;-74
2022/10/22 03:49:35;;;;;;;;;;;10.40;99.90;;;;;;4843283;29;20507;-75
2022/10/22 03:52:09;;;;;;;16.05;6.30;;;10.30;99.90;;;;;;4843078;29;19923;-74
2022/10/22 03:54:35;;;;;;;14.15;5.55;;;10.30;99.90;;;;;;4843001;29;20041;-75
2022/10/22 03:57:01;;;;;;;;;;;10.20;99.90;;;;;;4843108;29;20529;-74
2022/10/22 03:59:27;;;;;;;13.52;6.53;;;10.10;99.90;;;;;;4843244;29;19968;-75
2022/10/22 04:01:52;;;;;;;;;;;10.10;99.90;;;;;;4860452;29;20026;-74
2022/10/22 04:04:18;;;;;;;13.13;6.72;;;9.90;99.90;;;;;;4859800;29;19919;-74
2022/10/22 04:06:43;;;;;;;;;;;9.80;99.90;;;;;;4860971;29;20069;-75
2022/10/22 04:09:09;;;;;;;13.73;6.90;;;9.70;99.90;;;;;;4843218;29;19995;-75
2022/10/22 04:11:34;;;;;;;;;;;9.60;99.90;;;;;;4860127;29;20034;-74
2022/10/22 04:14:00;;;;;;;18.35;7.05;;;9.50;99.90;;;;;;4858415;29;20408;-74
2022/10/22 04:16:29;;;;;;;12.20;5.95;;;9.40;99.90;;;;;;4857477;29;20017;-74
2022/10/22 04:18:56;;;;;;;21.30;5.45;;;9.40;99.90;;;;;;4859036;29;20768;-76
2022/10/22 04:21:21;;;;;;;10.95;5.53;;;9.40;99.90;;;;;;4842171;29;20109;-75
2022/10/22 04:23:48;;;;;;;;;;;9.30;99.90;;;;;;4842517;29;20034;-74
2022/10/22 04:26:14;;;;;;;9.98;5.85;;;9.30;99.90;;;;;;4841461;29;19956;-74
2022/10/22 04:28:40;;;;;;;13.25;5.30;;;9.20;99.90;;;;;;4841624;29;20406;-74
2022/10/22 04:31:07;;;;;;;;;;;9.10;99.90;;;;;;4842229;29;20034;-74
2022/10/22 04:33:33;;;;;;;13.43;5.13;;;9.10;99.90;;;;;;4858212;29;19964;-74
2022/10/22 04:35:58;;;;;;;20.60;7.05;;;9.10;99.90;;;;;;4842417;29;20050;-74
2022/10/22 04:38:24;;;;;;;;;;;9.10;99.90;;;;;;4862206;29;20562;-74
2022/10/22 04:40:49;;;;;;;20.83;8.05;;;8.90;99.90;;;;;;4862899;29;19964;-74
2022/10/22 04:43:15;;;;;;;;;;;8.90;99.90;;;;;;4845295;29;20034;-74
2022/10/22 04:45:41;;;;;;;13.75;6.70;;;8.90;99.90;;;;;;4862350;29;19966;-74
2022/10/22 04:48:06;;;;;;;;;;;8.80;99.90;;;;;;4859156;29;20049;-74
2022/10/22 04:50:32;;;;;;;16.67;7.95;;;8.80;99.90;;;;;;4861739;29;19924;-74
2022/10/22 04:52:57;;;;;;;13.40;6.60;;;8.80;99.90;;;;;;4862055;29;20057;-74
2022/10/22 04:55:23;;;;;;;;;;;8.80;99.90;;;;;;4845695;29;20065;-74
2022/10/22 04:57:48;;;;;;;10.30;5.57;;;8.70;99.90;;;;;;4844668;29;19916;-74
2022/10/22 05:00:15;;;;;;;;;;;8.70;99.90;;;;;;4862396;29;20451;-75
2022/10/22 05:02:43;;;;;;;13.02;7.18;;;8.70;99.90;;;;;;4860570;29;19916;-74
2022/10/22 05:05:09;;;;;;;13.65;7.65;;;8.60;99.90;;;;;;4861031;29;20041;-75
2022/10/22 05:07:34;;;;;;;;;;;8.60;99.90;;;;;;4845818;29;20064;-74
2022/10/22 05:10:01;;;;;;;14.18;8.23;;;8.70;99.90;;;;;;4844669;29;19912;-74
2022/10/22 05:12:28;;;;;;;18.13;9.88;;;8.60;99.90;;;;;;4860342;29;20073;-74
2022/10/22 05:14:54;;;;;;;18.55;9.73;;;8.60;99.90;;;;;;4859355;29;20030;-75
2022/10/22 05:17:20;;;;;;;17.92;9.68;;;8.60;99.90;;;;;;4842470;29;20114;-75
2022/10/22 05:19:46;;;;;;;;;;;8.70;99.90;;;;;;4844386;29;20403;-74
2022/10/22 05:22:11;;;;;;;14.85;8.48;;;8.70;99.90;;;;;;4843948;29;19919;-75
2022/10/22 05:24:37;;;;;;;;;;;8.70;99.90;;;;;;4851603;29;20033;-74
2022/10/22 05:27:03;;;;;;;14.00;7.20;;;8.70;99.90;;;;;;4860985;29;19919;-74
2022/10/22 05:29:29;;;;;;;14.38;7.30;;;8.70;99.90;;;;;;4844974;29;20093;-74
2022/10/22 05:31:55;;;;;;;;;;;8.70;99.90;;;;;;4845135;29;20076;-74
2022/10/22 05:34:20;;;;;;;24.58;8.00;;;8.80;99.90;;;;;;4861126;29;19927;-75
2022/10/22 05:36:46;;;;;;;;;;;8.80;99.90;;;;;;4844555;29;20040;-76
2022/10/22 05:39:12;;;;;;;13.55;7.22;;;8.80;99.90;;;;;;4843626;29;19916;-74
2022/10/22 05:41:37;;;;;;;12.77;7.95;;;8.90;99.90;;;;;;4860769;29;20381;-74
2022/10/22 05:44:03;;;;;;;;;;;9.00;99.90;;;;;;4844728;29;20044;-75
2022/10/22 05:46:34;;;;;;;17.02;7.28;;;9.00;99.90;;;;;;4833240;29;19924;-74
2022/10/22 05:49:02;;;;;;;21.90;7.43;;;9.00;99.90;;;;;;4852298;29;20040;-74
2022/10/22 05:51:30;;;;;;;14.00;7.20;;;9.10;99.90;;;;;;4860371;29;20056;-74
2022/10/22 05:54:01;;;;;;;18.85;7.65;;;9.20;99.90;;;;;;4860994;29;20037;-74
2022/10/22 05:56:30;;;;;;;19.17;9.18;;;9.20;99.90;;;;;;4829873;29;20057;-74
2022/10/22 05:58:56;;;;;;;23.40;9.30;;;9.30;99.90;;;;;;4845014;29;20032;-74
2022/10/22 06:01:23;;;;;;;;;;;9.30;99.90;;;;;;4859507;29;20041;-74
2022/10/22 06:03:51;;;;;;;13.18;7.05;;;9.30;99.90;;;;;;4859446;29;19999;-74
2022/10/22 06:06:24;;;;;;;17.17;7.43;;;9.50;99.90;;;;;;4860176;29;20056;-75
2022/10/22 06:08:51;;;;;;;17.30;6.75;;;9.60;99.90;;;;;;4828044;29;20536;-74
2022/10/22 06:11:19;;;;;;;11.35;6.70;;;9.60;99.90;;;;;;4850459;29;20034;-74
2022/10/22 06:13:45;;;;;;;13.93;7.78;;;9.80;99.90;;;;;;4844774;29;20040;-74
2022/10/22 06:16:10;;;;;;;;;;;9.90;99.90;;;;;;4833329;29;20124;-74
2022/10/22 06:18:36;;;;;;;16.58;9.25;;;10.00;99.90;;;;;;4858776;29;19947;-74
2022/10/22 06:21:09;;;;;;;;;;;10.10;99.90;;;;;;4844383;29;20037;-74
2022/10/22 06:23:36;;;;;;;14.13;8.68;;;10.20;99.90;;;;;;4841848;29;19958;-74
2022/10/22 06:26:03;;;;;;;22.33;8.98;;;10.30;99.90;;;;;;4860125;29;20048;-76
2022/10/22 06:28:29;;;;;;;19.90;10.60;;;10.40;99.90;;;;;;4844470;29;20120;-76
2022/10/22 06:30:56;;;;;;;;;;;10.60;99.90;;;;;;4845721;29;20124;-76
2022/10/22 06:33:21;;;;;;;20.90;11.10;;;10.70;99.90;;;;;;4860573;29;19916;-76
2022/10/22 06:35:47;;;;;;;;;;;10.90;99.90;;;;;;4844066;29;20037;-77
2022/10/22 06:38:13;;;;;;;27.85;15.43;;;11.30;99.90;;;;;;4860046;29;19964;-75
2022/10/22 06:40:42;;;;;;;;;;;11.70;99.90;;;;;;4842619;29;20128;-75
2022/10/22 06:43:08;;;;;;;46.97;22.95;;;12.10;99.90;;;;;;4858787;29;19916;-75
2022/10/22 06:45:34;;;;;;;34.15;20.38;;;12.60;99.90;;;;;;4843135;29;20460;-74
2022/10/22 06:47:59;;;;;;;;;;;12.90;99.90;;;;;;4842028;29;20542;-74
2022/10/22 06:50:25;;;;;;;22.33;11.90;;;13.40;99.90;;;;;;4851282;29;20023;-74
2022/10/22 06:52:51;;;;;;;41.72;21.95;;;13.60;99.90;;;;;;4844207;29;20061;-74
2022/10/22 06:55:16;;;;;;;;;;;14.00;99.90;;;;;;4857751;29;20046;-74
2022/10/22 06:57:42;;;;;;;99.53;53.55;;;14.30;99.90;;;;;;4849405;29;19918;-74
2022/10/22 07:00:08;;;;;;;;;;;14.30;99.90;;;;;;4842569;29;20522;-74
2022/10/22 07:02:33;;;;;;;23.77;15.45;;;14.30;99.90;;;;;;4856885;29;19916;-74
2022/10/22 07:04:59;;;;;;;;;;;14.30;99.90;;;;;;4858706;29;20041;-75
2022/10/22 07:07:24;;;;;;;19.25;11.57;;;14.30;99.90;;;;;;4840632;29;19919;-75
2022/10/22 07:09:50;;;;;;;;;;;14.40;99.90;;;;;;4858950;29;20052;-74
2022/10/22 07:12:16;;;;;;;17.52;10.75;;;14.40;99.90;;;;;;4842272;29;19912;-74
2022/10/22 07:14:42;;;;;;;14.02;9.27;;;14.40;99.90;;;;;;4842176;29;20037;-74
2022/10/22 07:17:08;;;;;;;;;;;14.50;99.90;;;;;;4859057;29;20037;-74
2022/10/22 07:19:33;;;;;;;15.27;8.45;;;14.70;99.90;;;;;;4841248;29;19912;-75
2022/10/22 07:21:59;;;;;;;;;;;14.90;99.90;;;;;;4842439;29;20077;-74
2022/10/22 07:24:25;;;;;;;17.33;8.20;;;14.90;99.90;;;;;;4842242;29;19919;-74
2022/10/22 07:26:50;;;;;;;33.47;7.82;;;14.90;99.50;;;;;;4842143;29;20042;-74
2022/10/22 07:29:16;;;;;;;13.23;6.55;;;14.90;99.00;;;;;;4841591;29;20030;-74
2022/10/22 07:31:42;;;;;;;;;;;14.80;99.50;;;;;;4842071;29;20128;-74
2022/10/22 07:34:07;;;;;;;12.02;5.57;;;14.70;99.50;;;;;;4842094;29;19912;-75
2022/10/22 07:36:33;;;;;;;;;;;14.70;99.80;;;;;;4858514;29;20037;-74
2022/10/22 07:38:59;;;;;;;12.13;5.90;;;14.90;99.90;;;;;;4842038;29;19912;-75
2022/10/22 07:41:28;;;;;;;14.23;6.35;;;15.00;99.50;;;;;;4842167;29;20033;-74
2022/10/22 07:43:54;;;;;;;14.25;7.68;;;15.10;99.30;;;;;;4858034;29;20041;-73
2022/10/22 07:46:20;;;;;;;14.85;7.07;;;15.20;99.20;;;;;;4841605;29;20049;-74
2022/10/22 07:48:45;;;;;;;;;;;15.20;98.90;;;;;;4859008;29;20555;-74
2022/10/22 07:51:11;;;;;;;13.20;6.90;;;15.20;99.00;;;;;;4841992;29;19924;-75
2022/10/22 07:53:37;;;;;;;18.65;10.68;;;15.10;99.40;;;;;;4841326;29;20030;-74
2022/10/22 07:56:03;;;;;;;14.43;8.88;;;15.10;99.40;;;;;;4841997;29;20128;-75
2022/10/22 07:58:29;;;;;;;20.15;6.88;;;15.00;99.90;;;;;;4841920;29;20124;-74
2022/10/22 08:00:59;;;;;;;18.83;7.35;;;15.00;99.90;;;;;;4858229;29;20525;-74
2022/10/22 08:03:26;;;;;;;15.82;8.15;;;15.00;99.90;;;;;;4858357;29;20105;-75
2022/10/22 08:05:52;;;;;;;20.73;10.35;;;15.00;99.60;;;;;;4840950;29;20049;-74
2022/10/22 08:08:18;;;;;;;22.92;13.60;;;15.20;99.20;;;;;;4858557;29;20063;-75
2022/10/22 08:10:46;;;;;;;43.97;23.30;;;15.30;99.10;;;;;;4857756;29;20479;-75
2022/10/22 08:13:12;;;;;;;18.75;10.98;;;15.30;98.70;;;;;;4840657;29;20068;-75
2022/10/22 08:15:38;;;;;;;29.05;8.70;;;15.30;98.50;;;;;;4858412;29;20085;-75
2022/10/22 08:18:04;;;;;;;15.82;8.10;;;15.40;98.70;;;;;;4840953;29;20041;-75
2022/10/22 08:20:29;;;;;;;;;;;15.50;98.90;;;;;;4857791;29;20033;-75
2022/10/22 08:22:55;;;;;;;21.10;8.60;;;15.60;98.70;;;;;;4856534;29;20440;-75
2022/10/22 08:25:21;;;;;;;13.80;6.85;;;15.60;98.50;;;;;;4840326;29;20045;-75
2022/10/22 08:27:46;;;;;;;26.25;8.40;;;15.90;98.30;;;;;;4839778;29;20034;-75
2022/10/22 08:30:13;;;;;;;17.92;7.72;;;16.10;97.90;;;;;;4856892;29;20042;-76
2022/10/22 08:32:39;;;;;;;22.58;15.00;;;16.50;97.30;;;;;;4841018;29;20245;-75
2022/10/22 08:35:05;;;;;;;30.13;18.67;;;17.10;96.50;;;;;;4856104;29;20033;-78
2022/10/22 08:37:31;;;;;;;24.42;11.40;;;17.90;95.00;;;;;;4856317;29;20030;-81
2022/10/22 08:39:56;;;;;;;25.10;9.35;;;18.60;93.80;;;;;;4856410;29;20044;-78
2022/10/22 08:42:34;;;;;;;18.35;10.90;;;19.10;91.90;;;;;;4856138;29;20038;-79
2022/10/22 08:45:11;;;;;;;43.20;25.40;;;19.50;90.80;;;;;;4839804;29;20395;-79
2022/10/22 08:48:11;;;;;;;58.33;30.33;;;19.80;88.30;;;;;;4839667;29;20511;-82
2022/10/22 08:50:46;;;;;;;17.92;9.23;;;20.20;83.40;;;;;;4841545;29;20046;-80
2022/10/22 08:53:19;;;;;;;23.80;8.57;;;20.40;80.80;;;;;;4856082;29;20073;-78
2022/10/22 08:55:45;;;;;;;22.75;7.32;;;20.10;80.90;;;;;;4856214;29;20039;-78
2022/10/22 08:58:30;;;;;;;12.98;7.15;;;20.00;81.80;;;;;;4856131;29;20030;-80
2022/10/22 09:01:01;;;;;;;20.75;9.15;;;19.90;80.90;;;;;;4839454;29;20057;-76
2022/10/22 09:04:07;;;;;;;11.02;7.07;;;19.80;80.40;;;;;;4856094;29;20102;-75
2022/10/22 09:06:35;;;;;;;18.27;8.98;;;19.50;79.40;;;;;;4820747;29;20045;-76
2022/10/22 09:09:10;;;;;;;22.02;7.13;;;19.10;81.30;;;;;;4839325;29;20037;-76
2022/10/22 09:11:38;;;;;;;21.73;12.75;;;18.90;81.80;;;;;;4849901;29;20034;-75
2022/10/22 09:14:05;;;;;;;15.18;10.15;;;18.70;82.90;;;;;;4827003;29;20468;-75
2022/10/22 09:17:08;;;;;;;18.80;7.13;;;18.50;83.80;;;;;;4822896;29;20064;-75
2022/10/22 09:19:40;;;;;;;13.48;6.43;;;18.50;83.00;;;;;;4854648;29;20040;-75
2022/10/22 09:22:33;;;;;;;12.43;7.38;;;18.20;84.70;;;;;;4839495;29;20058;-75
2022/10/22 09:25:32;;;;;;;13.60;6.70;;;17.90;86.40;;;;;;4842310;29;20056;-75
2022/10/22 09:27:57;;;;;;;14.40;7.70;;;17.70;88.10;;;;;;4842438;29;20038;-75
2022/10/22 09:30:27;;;;;;;21.40;8.13;;;17.60;88.10;;;;;;4859340;29;20036;-74
2022/10/22 09:33:01;;;;;;;20.80;8.93;;;17.60;89.00;;;;;;4859497;29;20033;-74
2022/10/22 09:35:27;;;;;;;23.58;8.27;;;17.60;89.50;;;;;;4842713;29;20037;-74
2022/10/22 09:37:55;;;;;;;12.55;7.30;;;17.60;89.90;;;;;;4852525;29;20385;-75
2022/10/22 09:40:22;;;;;;;16.55;9.15;;;17.50;90.30;;;;;;4841098;29;20033;-75
2022/10/22 09:42:48;;;;;;;16.02;7.28;;;17.50;90.40;;;;;;4842844;29;20413;-76
2022/10/22 09:45:24;;;;;;;21.35;10.15;;;17.40;91.00;;;;;;4858681;29;20033;-74
2022/10/22 09:48:08;;;;;;;20.42;11.02;;;17.30;90.70;;;;;;4859477;29;20045;-75
2022/10/22 09:50:42;;;;;;;24.17;17.92;;;17.10;91.30;;;;;;4840892;29;20085;-75
2022/10/22 09:54:24;;;;;;;16.13;9.63;;;16.90;91.90;;;;;;5138370;27;434818;-75
2022/10/22 09:57:20;;;;;;;16.30;7.35;;;16.70;92.20;;;;;;5140948;27;20042;-75
2022/10/22 09:59:49;;;;;;;14.23;6.65;;;16.60;92.80;;;;;;5136714;27;20102;-73
2022/10/22 10:04:53;;;;;;;17.23;7.10;;;16.50;92.40;;;;;;4697484;22;20143;-76
2022/10/22 10:07:25;;;;;;;12.40;6.30;;;16.50;92.40;;;;;;5044618;28;20093;-74
2022/10/22 10:09:52;;;;;;;14.43;6.38;;;16.60;93.10;;;;;;5048133;28;20029;-76
2022/10/22 10:12:18;;;;;;;13.07;7.35;;;16.70;93.70;;;;;;5065846;28;20083;-76
2022/10/22 10:15:18;;;;;;;23.65;7.88;;;16.90;93.70;;;;;;5048996;28;20037;-76
2022/10/22 10:18:00;;;;;;;12.75;7.00;;;17.00;93.00;;;;;;5066203;28;20075;-77
2022/10/22 10:20:40;;;;;;;15.82;6.35;;;16.90;93.20;;;;;;5066367;28;20037;-77
2022/10/22 10:23:43;;;;;;;16.25;6.72;;;17.00;93.40;;;;;;5066007;28;20025;-76
2022/10/22 10:26:18;;;;;;;12.23;7.32;;;16.90;93.70;;;;;;5066662;28;20094;-76
2022/10/22 10:29:01;;;;;;;20.58;6.38;;;17.00;93.90;;;;;;5067479;28;20048;-76
2022/10/22 10:31:32;;;;;;;9.38;6.20;;;16.90;93.90;;;;;;5048049;28;20036;-76
2022/10/22 10:34:13;;;;;;;11.68;7.38;;;17.00;94.00;;;;;;5065972;28;20040;-76
2022/10/22 10:37:05;;;;;;;18.23;6.88;;;16.90;94.20;;;;;;5066499;28;20025;-77
2022/10/22 10:40:07;;;;;;;11.52;6.55;;;16.90;94.10;;;;;;5047891;28;20071;-77
2022/10/22 10:42:40;;;;;;;19.52;8.55;;;16.80;94.10;;;;;;5048644;28;20029;-76
2022/10/22 10:45:18;;;;;;;13.32;6.97;;;16.90;94.10;;;;;;5047840;28;20025;-76
2022/10/22 10:47:55;;;;;;;23.45;6.50;;;16.80;94.20;;;;;;5066534;28;20082;-76
2022/10/22 10:50:46;;;;;;;14.32;6.10;;;16.80;94.20;;;;;;5047593;28;20028;-76
2022/10/22 10:53:24;;;;;;;13.35;6.57;;;16.80;94.40;;;;;;5047489;28;20055;-76
2022/10/22 10:56:14;;;;;;;10.52;6.15;;;16.70;94.60;;;;;;5065317;28;20073;-76
2022/10/22 10:58:42;;;;;;;28.25;8.18;;;16.70;94.80;;;;;;5047369;28;20040;-77
2022/10/22 11:01:23;;;;;;;14.57;5.78;;;16.70;94.60;;;;;;5048082;28;20028;-76
2022/10/22 11:04:03;;;;;;;16.42;6.18;;;16.70;94.80;;;;;;5076659;28;20075;-76
2022/10/22 11:06:32;;;;;;;18.45;6.57;;;16.80;94.80;;;;;;5054105;28;20051;-76
2022/10/22 11:09:07;;;;;;;13.55;5.30;;;16.70;94.90;;;;;;5071426;28;20029;-75
2022/10/22 11:11:46;;;;;;;17.95;6.78;;;16.70;94.80;;;;;;5072159;28;20104;-75
2022/10/22 11:14:17;;;;;;;17.58;7.15;;;16.60;95.00;;;;;;5052503;28;20039;-76
2022/10/22 11:16:54;;;;;;;13.55;6.47;;;16.50;95.30;;;;;;5072342;28;20039;-76
2022/10/22 11:19:59;;;;;;;17.25;6.10;;;16.50;95.50;;;;;;5070932;28;20420;-76
2022/10/22 11:22:33;;;;;;;15.63;6.38;;;16.30;95.90;;;;;;4954858;28;20034;-76
2022/10/22 11:25:11;;;;;;;12.45;6.60;;;16.20;95.80;;;;;;5059600;28;20040;-76
2022/10/22 11:27:55;;;;;;;12.07;6.00;;;16.20;95.90;;;;;;5073076;28;20439;-76
2022/10/22 11:30:24;;;;;;;15.88;7.38;;;16.20;95.90;;;;;;5070843;28;20074;-76
2022/10/22 11:32:57;;;;;;;15.60;8.50;;;16.10;95.80;;;;;;5053717;28;20051;-76
2022/10/22 11:35:36;;;;;;;18.45;8.57;;;15.90;95.80;;;;;;5053859;28;20388;-76
2022/10/22 11:38:05;;;;;;;20.08;8.25;;;15.80;95.80;;;;;;5072075;28;20108;-76
2022/10/22 11:40:41;;;;;;;20.27;11.25;;;15.70;96.10;;;;;;5071661;28;20024;-76
2022/10/22 11:43:09;;;;;;;17.58;9.32;;;15.70;96.30;;;;;;5072420;28;20036;-75
2022/10/22 11:45:39;;;;;;;21.15;7.50;;;15.60;96.50;;;;;;5053506;28;20519;-76
2022/10/22 11:48:10;;;;;;;21.73;7.18;;;15.60;96.60;;;;;;5053883;28;20032;-76
2022/10/22 11:50:56;;;;;;;19.83;6.97;;;15.50;97.00;;;;;;5071914;28;20094;-76
2022/10/22 11:53:25;;;;;;;26.60;8.73;;;15.40;97.70;;;;;;5053892;28;20480;-76
2022/10/22 11:56:03;;;;;;;16.40;6.47;;;15.40;97.90;;;;;;5054004;28;20068;-76
2022/10/22 11:58:41;;;;;;;17.45;7.22;;;15.40;97.60;;;;;;5071746;28;20502;-76
2022/10/22 12:01:06;;;;;;;26.73;12.10;;;15.30;98.00;;;;;;5071729;28;20020;-76
2022/10/22 12:03:32;;;;;;;;;;;15.30;98.30;;;;;;5071522;28;20454;-76
2022/10/22 12:06:14;;;;;;;16.52;10.48;;;15.20;98.70;;;;;;5071859;28;20644;-75
2022/10/22 12:08:44;;;;;;;15.30;8.48;;;15.20;98.80;;;;;;5053428;28;20123;-76
2022/10/22 12:11:10;;;;;;;13.43;7.72;;;15.10;98.50;;;;;;5053304;28;20078;-76
2022/10/22 12:14:03;;;;;;;;;;;15.10;98.60;;;;;;5054078;28;20036;-75
2022/10/22 12:16:37;;;;;;;12.38;6.53;;;15.10;99.10;;;;;;5070439;28;20011;-76
2022/10/22 12:19:23;;;;;;;13.07;7.78;;;15.00;99.40;;;;;;5072640;28;20029;-76
2022/10/22 12:21:53;;;;;;;14.07;7.32;;;15.00;98.80;;;;;;5052484;28;20033;-76
2022/10/22 12:24:22;;;;;;;19.23;7.97;;;15.10;98.80;;;;;;5053499;28;20036;-76
2022/10/22 12:26:51;;;;;;;12.77;7.75;;;15.10;98.80;;;;;;5071673;28;20039;-76
2022/10/22 12:29:21;;;;;;;16.33;8.95;;;15.20;98.50;;;;;;5070655;28;20020;-76
2022/10/22 12:31:47;;;;;;;14.52;7.72;;;15.30;98.20;;;;;;5052592;28;20025;-76
2022/10/22 12:34:14;;;;;;;;;;;15.30;98.30;;;;;;5052897;28;20047;-76
2022/10/22 12:36:39;;;;;;;14.25;8.23;;;15.40;98.00;;;;;;5070527;28;20000;-76
2022/10/22 12:39:17;;;;;;;14.95;8.40;;;15.40;98.00;;;;;;5053126;28;20177;-76
2022/10/22 12:41:44;;;;;;;18.20;7.88;;;15.50;97.80;;;;;;5069411;28;20404;-75
2022/10/22 12:44:16;;;;;;;15.40;7.85;;;15.60;98.10;;;;;;5070982;28;20514;-76
2022/10/22 12:46:43;;;;;;;23.95;8.50;;;15.70;98.10;;;;;;5052653;28;20023;-76
2022/10/22 12:49:26;;;;;;;15.13;8.07;;;15.70;97.80;;;;;;5070764;28;20047;-76
2022/10/22 12:51:52;;;;;;;14.63;7.13;;;15.70;98.10;;;;;;5070681;28;20025;-75
2022/10/22 12:54:23;;;;;;;13.20;7.65;;;15.60;98.00;;;;;;5070036;28;20036;-76
2022/10/22 12:56:51;;;;;;;19.77;7.53;;;15.60;98.10;;;;;;5069135;28;20460;-76
2022/10/22 12:59:37;;;;;;;11.90;6.78;;;15.50;98.90;;;;;;5052454;28;20412;-76
2022/10/22 13:02:24;;;;;;;18.00;7.67;;;15.50;98.90;;;;;;5069228;28;20025;-76
2022/10/22 13:05:05;;;;;;;;;;;15.50;99.40;;;;;;5052542;28;20317;-76
2022/10/22 13:07:38;;;;;;;15.75;7.93;;;15.50;98.90;;;;;;5069870;28;19908;-77
2022/10/22 13:10:16;;;;;;;14.77;7.22;;;15.50;99.30;;;;;;5052711;28;20028;-76
2022/10/22 13:12:48;;;;;;;15.57;7.47;;;15.40;99.40;;;;;;5070077;28;20032;-75
2022/10/22 13:15:19;;;;;;;16.45;8.07;;;15.40;99.60;;;;;;5070136;28;20038;-75
2022/10/22 13:17:47;;;;;;;12.85;6.75;;;15.40;99.50;;;;;;5068864;28;20036;-76
2022/10/22 13:20:22;;;;;;;13.85;7.80;;;15.30;99.50;;;;;;5069675;28;20031;-76